createdAt,value
2022-10-20T00:00:22.075Z,0.00
2022-10-20T00:01:22.076Z,0.00
2022-10-20T00:02:22.110Z,0.00
2022-10-20T00:03:22.088Z,0.00
2022-10-20T00:04:22.041Z,0.00
2022-10-20T00:05:22.044Z,0.00
2022-10-20T00:06:22.008Z,0.00
2022-10-20T00:07:22.000Z,0.00
2022-10-20T00:08:22.003Z,0.00
2022-10-20T00:09:21.987Z,0.00
2022-10-20T00:10:21.964Z,0.00
2022-10-20T00:11:21.960Z,0.00
2022-10-20T00:12:21.944Z,0.00
2022-10-20T00:13:21.945Z,0.00
2022-10-20T00:14:21.918Z,0.00
2022-10-20T00:15:21.921Z,0.00
2022-10-20T00:16:21.906Z,0.00
2022-10-20T00:17:21.903Z,0.00
2022-10-20T00:18:21.890Z,0.00
2022-10-20T00:19:21.896Z,0.00
2022-10-20T00:20:21.855Z,0.00
2022-10-20T00:21:21.865Z,0.00
2022-10-20T00:22:21.830Z,0.00
2022-10-20T00:23:21.825Z,0.00
2022-10-20T00:24:21.833Z,0.00
2022-10-20T00:25:21.810Z,0.00
2022-10-20T00:26:21.809Z,0.00
2022-10-20T00:27:21.799Z,0.00
2022-10-20T00:28:21.812Z,0.00
2022-10-20T00:29:21.778Z,0.00
2022-10-20T00:30:23.760Z,0.00
2022-10-20T00:31:21.759Z,0.00
2022-10-20T00:32:21.725Z,0.00
2022-10-20T00:33:21.716Z,0.00
2022-10-20T00:34:21.725Z,0.00
2022-10-20T00:35:21.718Z,0.00
2022-10-20T00:36:21.713Z,0.00
2022-10-20T00:37:21.689Z,0.00
2022-10-20T00:38:21.655Z,0.00
2022-10-20T00:39:21.647Z,0.00
2022-10-20T00:40:21.642Z,0.00
2022-10-20T00:41:21.632Z,0.00
2022-10-20T00:42:21.625Z,0.00
2022-10-20T00:43:21.603Z,0.00
2022-10-20T00:44:21.605Z,0.00
2022-10-20T00:45:28.591Z,0.00
2022-10-20T00:46:21.574Z,0.00
2022-10-20T00:47:21.557Z,0.00
2022-10-20T00:48:21.541Z,0.00
2022-10-20T00:49:21.546Z,0.00
2022-10-20T00:50:21.518Z,0.00
2022-10-20T00:51:21.512Z,0.00
2022-10-20T00:52:21.502Z,0.00
2022-10-20T00:53:21.519Z,0.00
2022-10-20T00:54:21.505Z,0.00
2022-10-20T00:55:21.468Z,0.00
2022-10-20T00:56:21.465Z,0.00
2022-10-20T00:57:21.460Z,0.00
2022-10-20T00:58:21.432Z,0.00
2022-10-20T00:59:21.438Z,0.00
2022-10-20T01:00:21.426Z,0.00
2022-10-20T01:01:21.442Z,0.00
2022-10-20T01:02:21.386Z,0.00
2022-10-20T01:03:21.389Z,0.00
2022-10-20T01:04:21.389Z,0.00
2022-10-20T01:05:21.384Z,0.00
2022-10-20T01:06:21.344Z,0.00
2022-10-20T01:07:21.337Z,0.00
2022-10-20T01:08:21.320Z,0.00
2022-10-20T01:09:21.346Z,0.00
2022-10-20T01:10:21.310Z,0.00
2022-10-20T01:11:21.292Z,0.00
2022-10-20T01:12:21.277Z,0.00
2022-10-20T01:13:21.276Z,0.00
2022-10-20T01:14:21.271Z,0.00
2022-10-20T01:15:21.322Z,0.00
2022-10-20T01:16:21.235Z,0.00
2022-10-20T01:17:21.231Z,0.00
2022-10-20T01:18:21.209Z,0.00
2022-10-20T01:19:21.204Z,0.00
2022-10-20T01:20:21.215Z,0.00
2022-10-20T01:21:21.195Z,0.00
2022-10-20T01:22:21.183Z,0.00
2022-10-20T01:23:21.161Z,0.00
2022-10-20T01:24:21.198Z,0.00
2022-10-20T01:25:21.161Z,0.00
2022-10-20T01:26:21.132Z,0.00
2022-10-20T01:27:21.118Z,0.00
2022-10-20T01:28:21.095Z,0.00
2022-10-20T01:29:21.089Z,0.00
2022-10-20T01:30:21.099Z,0.00
2022-10-20T01:31:21.078Z,0.00
2022-10-20T01:32:21.056Z,0.00
2022-10-20T01:33:21.073Z,0.00
2022-10-20T01:34:21.035Z,0.00
2022-10-20T01:35:21.022Z,0.00
2022-10-20T01:36:21.019Z,0.00
2022-10-20T01:37:34.190Z,0.00
2022-10-20T01:38:22.005Z,0.00
2022-10-20T01:39:20.988Z,0.00
2022-10-20T01:40:20.993Z,0.00
2022-10-20T01:41:20.984Z,0.00
2022-10-20T01:42:20.958Z,0.00
2022-10-20T01:43:20.932Z,0.00
2022-10-20T01:44:20.943Z,0.00
2022-10-20T01:45:20.911Z,0.00
2022-10-20T01:46:20.918Z,0.00
2022-10-20T01:47:20.896Z,0.00
2022-10-20T01:48:20.879Z,0.00
2022-10-20T01:49:20.880Z,0.00
2022-10-20T01:50:20.860Z,0.00
2022-10-20T01:51:20.845Z,0.00
2022-10-20T01:52:20.849Z,0.00
2022-10-20T01:53:20.822Z,0.00
2022-10-20T01:54:20.830Z,0.00
2022-10-20T01:55:20.800Z,0.00
2022-10-20T01:56:20.800Z,0.00
2022-10-20T01:57:20.806Z,0.00
2022-10-20T01:58:20.770Z,0.00
2022-10-20T01:59:20.754Z,0.00
2022-10-20T02:00:20.749Z,0.00
2022-10-20T02:01:20.785Z,0.00
2022-10-20T02:02:20.737Z,0.00
2022-10-20T02:03:20.716Z,0.00
2022-10-20T02:04:20.722Z,0.00
2022-10-20T02:05:20.711Z,0.00
2022-10-20T02:06:20.684Z,0.00
2022-10-20T02:07:20.665Z,0.00
2022-10-20T02:08:20.671Z,0.00
2022-10-20T02:09:20.661Z,0.00
2022-10-20T02:10:20.644Z,0.00
2022-10-20T02:11:20.650Z,0.00
2022-10-20T02:12:20.633Z,0.00
2022-10-20T02:13:20.632Z,0.00
2022-10-20T02:14:20.597Z,0.00
2022-10-20T02:15:20.602Z,0.00
2022-10-20T02:16:20.606Z,0.00
2022-10-20T02:17:20.553Z,0.00
2022-10-20T02:18:20.546Z,0.00
2022-10-20T02:19:20.543Z,0.00
2022-10-20T02:20:20.525Z,0.00
2022-10-20T02:21:20.514Z,0.00
2022-10-20T02:22:20.530Z,0.00
2022-10-20T02:23:20.491Z,0.00
2022-10-20T02:24:20.490Z,0.00
2022-10-20T02:25:20.468Z,0.00
2022-10-20T02:26:20.478Z,0.00
2022-10-20T02:27:20.442Z,0.00
2022-10-20T02:28:20.443Z,0.00
2022-10-20T02:29:20.457Z,0.00
2022-10-20T02:30:20.415Z,0.00
2022-10-20T02:31:20.399Z,0.00
2022-10-20T02:32:20.398Z,0.00
2022-10-20T02:33:20.402Z,0.00
2022-10-20T02:34:20.390Z,0.00
2022-10-20T02:35:20.378Z,0.00
2022-10-20T02:36:20.366Z,0.00
2022-10-20T02:37:20.334Z,0.00
2022-10-20T02:38:20.336Z,0.00
2022-10-20T02:39:20.313Z,0.00
2022-10-20T02:40:20.304Z,0.00
2022-10-20T02:41:20.326Z,0.00
2022-10-20T02:42:20.285Z,0.00
2022-10-20T02:43:20.266Z,0.00
2022-10-20T02:44:20.259Z,0.00
2022-10-20T02:45:20.274Z,0.00
2022-10-20T02:46:27.751Z,0.00
2022-10-20T02:47:20.237Z,0.00
2022-10-20T02:48:20.213Z,0.00
2022-10-20T02:49:20.197Z,0.00
2022-10-20T02:50:20.192Z,0.00
2022-10-20T02:51:20.188Z,0.00
2022-10-20T02:52:20.168Z,0.00
2022-10-20T02:53:20.151Z,0.00
2022-10-20T02:54:20.157Z,0.00
2022-10-20T02:55:20.160Z,0.00
2022-10-20T02:56:20.123Z,0.00
2022-10-20T02:57:20.107Z,0.00
2022-10-20T02:58:20.115Z,0.00
2022-10-20T02:59:20.096Z,0.00
2022-10-20T03:00:20.090Z,0.00
2022-10-20T03:01:20.153Z,0.00
2022-10-20T03:02:20.056Z,0.00
2022-10-20T03:03:20.043Z,0.00
2022-10-20T03:04:20.097Z,0.00
2022-10-20T03:05:20.027Z,0.00
2022-10-20T03:06:20.029Z,0.00
2022-10-20T03:07:20.007Z,0.00
2022-10-20T03:08:20.020Z,0.00
2022-10-20T03:09:19.974Z,0.00
2022-10-20T03:10:19.991Z,0.00
2022-10-20T03:11:19.966Z,0.00
2022-10-20T03:12:19.949Z,0.00
2022-10-20T03:13:19.997Z,0.00
2022-10-20T03:14:19.924Z,0.00
2022-10-20T03:15:19.910Z,0.00
2022-10-20T03:16:19.914Z,0.00
2022-10-20T03:17:19.904Z,0.00
2022-10-20T03:18:20.000Z,0.00
2022-10-20T03:19:19.868Z,0.00
2022-10-20T03:20:19.869Z,0.00
2022-10-20T03:21:19.854Z,0.00
2022-10-20T03:22:19.875Z,0.00
2022-10-20T03:23:20.184Z,0.00
2022-10-20T03:24:19.815Z,0.00
2022-10-20T03:25:19.797Z,0.00
2022-10-20T03:26:19.822Z,0.00
2022-10-20T03:27:19.775Z,0.00
2022-10-20T03:28:19.780Z,0.00
2022-10-20T03:29:19.769Z,0.00
2022-10-20T03:30:19.762Z,0.00
2022-10-20T03:31:19.783Z,0.00
2022-10-20T03:32:19.739Z,0.00
2022-10-20T03:33:19.738Z,0.00
2022-10-20T03:34:19.702Z,0.00
2022-10-20T03:35:19.703Z,0.00
2022-10-20T03:36:19.697Z,0.00
2022-10-20T03:37:19.663Z,0.00
2022-10-20T03:38:19.660Z,0.00
2022-10-20T03:39:19.641Z,0.00
2022-10-20T03:40:19.647Z,0.00
2022-10-20T03:41:19.634Z,0.00
2022-10-20T03:42:19.619Z,0.00
2022-10-20T03:43:19.603Z,0.00
2022-10-20T03:44:19.591Z,0.00
2022-10-20T03:45:19.580Z,0.00
2022-10-20T03:46:19.584Z,0.00
2022-10-20T03:47:19.565Z,0.00
2022-10-20T03:48:19.548Z,0.00
2022-10-20T03:49:19.553Z,0.00
2022-10-20T03:50:19.525Z,0.00
2022-10-20T03:51:19.531Z,0.00
2022-10-20T03:52:19.504Z,0.00
2022-10-20T03:53:19.486Z,0.00
2022-10-20T03:54:19.492Z,0.00
2022-10-20T03:55:19.476Z,0.00
2022-10-20T03:56:19.494Z,0.00
2022-10-20T03:57:19.456Z,0.00
2022-10-20T03:58:19.486Z,0.00
2022-10-20T03:59:19.427Z,0.00
2022-10-20T04:00:19.448Z,0.00
2022-10-20T04:01:19.453Z,0.00
2022-10-20T04:02:19.442Z,0.00
2022-10-20T04:03:19.377Z,0.00
2022-10-20T04:04:19.377Z,0.00
2022-10-20T04:05:19.374Z,0.00
2022-10-20T04:06:19.371Z,0.00
2022-10-20T04:07:19.344Z,0.00
2022-10-20T04:08:19.334Z,0.00
2022-10-20T04:09:19.307Z,0.00
2022-10-20T04:10:19.303Z,0.00
2022-10-20T04:11:19.296Z,0.00
2022-10-20T04:12:19.297Z,0.00
2022-10-20T04:13:19.264Z,0.00
2022-10-20T04:14:19.260Z,0.00
2022-10-20T04:15:19.250Z,0.00
2022-10-20T04:16:19.262Z,0.00
2022-10-20T04:17:19.229Z,0.00
2022-10-20T04:18:19.213Z,0.00
2022-10-20T04:19:19.209Z,0.00
2022-10-20T04:20:19.196Z,0.00
2022-10-20T04:21:19.201Z,0.00
2022-10-20T04:22:19.181Z,0.00
2022-10-20T04:23:19.175Z,0.00
2022-10-20T04:24:19.176Z,0.00
2022-10-20T04:25:19.142Z,0.00
2022-10-20T04:26:19.143Z,0.00
2022-10-20T04:27:19.114Z,0.00
2022-10-20T04:28:19.113Z,0.00
2022-10-20T04:29:19.099Z,0.00
2022-10-20T04:30:19.078Z,0.00
2022-10-20T04:31:19.073Z,0.00
2022-10-20T04:32:19.060Z,0.00
2022-10-20T04:33:19.069Z,0.00
2022-10-20T04:34:19.034Z,0.00
2022-10-20T04:35:19.020Z,0.00
2022-10-20T04:36:19.044Z,0.00
2022-10-20T04:37:19.029Z,0.00
2022-10-20T04:38:18.990Z,0.00
2022-10-20T04:39:18.976Z,0.00
2022-10-20T04:40:18.993Z,0.00
2022-10-20T04:41:18.956Z,0.00
2022-10-20T04:42:18.948Z,0.00
2022-10-20T04:43:18.942Z,0.00
2022-10-20T04:44:18.949Z,0.00
2022-10-20T04:45:18.909Z,0.00
2022-10-20T04:46:18.904Z,0.00
2022-10-20T04:47:26.396Z,0.00
2022-10-20T04:48:18.883Z,0.00
2022-10-20T04:49:18.877Z,0.00
2022-10-20T04:50:18.858Z,0.00
2022-10-20T04:51:18.843Z,0.00
2022-10-20T04:52:18.850Z,0.00
2022-10-20T04:53:18.845Z,0.00
2022-10-20T04:54:18.820Z,0.00
2022-10-20T04:55:18.816Z,0.00
2022-10-20T04:56:18.792Z,0.00
2022-10-20T04:57:18.779Z,0.00
2022-10-20T04:58:18.772Z,0.00
2022-10-20T04:59:18.775Z,0.00
2022-10-20T05:00:18.759Z,0.00
2022-10-20T05:01:18.773Z,0.00
2022-10-20T05:02:18.741Z,0.00
2022-10-20T05:03:18.711Z,0.00
2022-10-20T05:04:18.721Z,0.00
2022-10-20T05:05:18.704Z,0.00
2022-10-20T05:06:18.719Z,0.00
2022-10-20T05:07:18.687Z,0.00
2022-10-20T05:08:18.661Z,0.00
2022-10-20T05:09:18.663Z,0.00
2022-10-20T05:10:19.037Z,0.00
2022-10-20T05:11:18.625Z,0.00
2022-10-20T05:12:18.624Z,0.00
2022-10-20T05:13:18.611Z,0.00
2022-10-20T05:14:18.610Z,0.00
2022-10-20T05:15:18.577Z,0.00
2022-10-20T05:16:18.581Z,0.00
2022-10-20T05:17:18.716Z,0.00
2022-10-20T05:18:18.578Z,0.00
2022-10-20T05:19:18.533Z,0.00
2022-10-20T05:20:18.541Z,4.00
2022-10-20T05:21:18.509Z,0.00
2022-10-20T05:22:18.541Z,0.00
2022-10-20T05:23:18.501Z,0.00
2022-10-20T05:24:21.336Z,4.00
2022-10-20T05:25:35.500Z,0.00
2022-10-20T05:26:19.471Z,0.00
2022-10-20T05:27:18.456Z,4.00
2022-10-20T05:28:18.457Z,4.00
2022-10-20T05:29:18.424Z,4.00
2022-10-20T05:30:18.438Z,4.00
2022-10-20T05:31:18.404Z,4.00
2022-10-20T05:32:18.392Z,8.00
2022-10-20T05:33:18.420Z,8.00
2022-10-20T05:34:18.406Z,12.00
2022-10-20T05:35:18.381Z,12.00
2022-10-20T05:36:21.190Z,12.00
2022-10-20T05:37:18.348Z,16.00
2022-10-20T05:38:18.334Z,20.00
2022-10-20T05:39:18.312Z,24.00
2022-10-20T05:40:18.304Z,32.00
2022-10-20T05:41:18.331Z,36.00
2022-10-20T05:42:18.284Z,44.00
2022-10-20T05:43:18.274Z,52.00
2022-10-20T05:44:18.257Z,60.00
2022-10-20T05:45:18.264Z,68.00
2022-10-20T05:46:18.253Z,80.00
2022-10-20T05:47:18.226Z,92.00
2022-10-20T05:48:18.221Z,100.00
2022-10-20T05:49:18.211Z,112.00
2022-10-20T05:50:18.190Z,124.00
2022-10-20T05:51:18.202Z,132.00
2022-10-20T05:52:18.187Z,140.00
2022-10-20T05:53:18.219Z,152.00
2022-10-20T05:54:18.247Z,164.00
2022-10-20T05:55:18.163Z,180.00
2022-10-20T05:56:18.718Z,192.00
2022-10-20T05:57:18.168Z,208.00
2022-10-20T05:58:19.636Z,232.00
2022-10-20T05:59:18.101Z,252.00
2022-10-20T06:00:18.103Z,272.00
2022-10-20T06:01:18.179Z,296.00
2022-10-20T06:02:18.077Z,324.00
2022-10-20T06:03:19.912Z,356.00
2022-10-20T06:04:18.075Z,396.00
2022-10-20T06:05:18.029Z,432.00
2022-10-20T06:06:18.058Z,472.00
2022-10-20T06:07:18.057Z,516.00
2022-10-20T06:08:19.063Z,560.00
2022-10-20T06:09:17.993Z,612.00
2022-10-20T06:10:17.967Z,664.00
2022-10-20T06:11:17.981Z,716.00
2022-10-20T06:12:17.956Z,772.00
2022-10-20T06:13:17.965Z,832.00
2022-10-20T06:14:17.925Z,892.00
2022-10-20T06:15:17.915Z,960.00
2022-10-20T06:16:17.937Z,1024.00
2022-10-20T06:17:17.914Z,1092.00
2022-10-20T06:18:17.906Z,1156.00
2022-10-20T06:19:17.891Z,1228.00
2022-10-20T06:20:17.864Z,1300.00
2022-10-20T06:21:17.847Z,1376.00
2022-10-20T06:22:17.842Z,1452.00
2022-10-20T06:23:17.825Z,1536.00
2022-10-20T06:24:17.858Z,1620.00
2022-10-20T06:25:17.814Z,1712.00
2022-10-20T06:26:17.786Z,1812.00
2022-10-20T06:27:17.798Z,1932.00
2022-10-20T06:28:17.797Z,2084.00
2022-10-20T06:29:17.779Z,2224.00
2022-10-20T06:30:17.756Z,2228.00
2022-10-20T06:31:17.749Z,2324.00
2022-10-20T06:32:17.735Z,2572.00
2022-10-20T06:33:17.727Z,3084.00
2022-10-20T06:34:17.697Z,3520.00
2022-10-20T06:35:18.482Z,3372.00
2022-10-20T06:36:17.677Z,3312.00
2022-10-20T06:37:17.702Z,3280.00
2022-10-20T06:38:17.706Z,3332.00
2022-10-20T06:39:17.644Z,3484.00
2022-10-20T06:40:18.535Z,3492.00
2022-10-20T06:41:17.633Z,3564.00
2022-10-20T06:42:17.636Z,3860.00
2022-10-20T06:43:17.608Z,3904.00
2022-10-20T06:44:17.594Z,3756.00
2022-10-20T06:45:17.963Z,3736.00
2022-10-20T06:46:17.594Z,3788.00
2022-10-20T06:47:18.639Z,3784.00
2022-10-20T06:48:25.575Z,3644.00
2022-10-20T06:49:17.535Z,3636.00
2022-10-20T06:50:17.519Z,3704.00
2022-10-20T06:51:17.526Z,3776.00
2022-10-20T06:52:17.504Z,3748.00
2022-10-20T06:53:17.514Z,3680.00
2022-10-20T06:54:17.519Z,3740.00
2022-10-20T06:55:17.490Z,4056.00
2022-10-20T06:56:18.506Z,4248.00
2022-10-20T06:57:17.515Z,4400.00
2022-10-20T06:58:17.849Z,4512.00
2022-10-20T06:59:17.486Z,4612.00
2022-10-20T07:00:17.500Z,4480.00
2022-10-20T07:01:18.517Z,4488.00
2022-10-20T07:02:17.418Z,4332.00
2022-10-20T07:03:18.005Z,4480.00
2022-10-20T07:04:17.418Z,4144.00
2022-10-20T07:05:17.384Z,4240.00
2022-10-20T07:06:17.556Z,4784.00
2022-10-20T07:07:24.931Z,5604.00
2022-10-20T07:08:17.334Z,6200.00
2022-10-20T07:09:17.342Z,6808.00
2022-10-20T07:10:18.542Z,5800.00
2022-10-20T07:11:18.555Z,4328.00
2022-10-20T07:12:18.081Z,3820.00
2022-10-20T07:13:17.382Z,3556.00
2022-10-20T07:14:17.632Z,3296.00
2022-10-20T07:15:17.276Z,3116.00
2022-10-20T07:16:17.260Z,3060.00
2022-10-20T07:17:17.252Z,3028.00
2022-10-20T07:18:17.248Z,3024.00
2022-10-20T07:19:17.245Z,3020.00
2022-10-20T07:20:17.251Z,3036.00
2022-10-20T07:21:17.231Z,3060.00
2022-10-20T07:22:17.196Z,3080.00
2022-10-20T07:23:17.178Z,3104.00
2022-10-20T07:24:17.158Z,3128.00
2022-10-20T07:25:17.145Z,3152.00
2022-10-20T07:26:17.159Z,3192.00
2022-10-20T07:27:17.144Z,3248.00
2022-10-20T07:28:17.245Z,3292.00
2022-10-20T07:29:17.134Z,3292.00
2022-10-20T07:30:17.078Z,3284.00
2022-10-20T07:31:17.078Z,3280.00
2022-10-20T07:32:17.056Z,3280.00
2022-10-20T07:33:17.102Z,3272.00
2022-10-20T07:34:26.861Z,3296.00
2022-10-20T07:35:18.025Z,3316.00
2022-10-20T07:36:17.211Z,3328.00
2022-10-20T07:37:17.142Z,3344.00
2022-10-20T07:38:17.011Z,3352.00
2022-10-20T07:39:17.043Z,3384.00
2022-10-20T07:40:17.059Z,3428.00
2022-10-20T07:41:16.974Z,3452.00
2022-10-20T07:42:16.974Z,3472.00
2022-10-20T07:43:16.972Z,3496.00
2022-10-20T07:44:16.922Z,3528.00
2022-10-20T07:45:16.927Z,3588.00
2022-10-20T07:46:16.932Z,3680.00
2022-10-20T07:47:16.893Z,3736.00
2022-10-20T07:48:16.880Z,3732.00
2022-10-20T07:50:17.855Z,3720.00
2022-10-20T07:51:16.870Z,3740.00
2022-10-20T07:52:16.886Z,3744.00
2022-10-20T07:53:16.838Z,3772.00
2022-10-20T07:54:16.821Z,3812.00
2022-10-20T07:55:37.650Z,3848.00
2022-10-20T07:56:17.828Z,3896.00
2022-10-20T07:57:16.792Z,3940.00
2022-10-20T07:58:16.778Z,3992.00
2022-10-20T07:59:17.543Z,4044.00
2022-10-20T08:00:16.780Z,4108.00
2022-10-20T08:01:16.808Z,4180.00
2022-10-20T08:02:17.576Z,4256.00
2022-10-20T08:03:17.546Z,4348.00
2022-10-20T08:04:16.761Z,4460.00
2022-10-20T08:05:17.126Z,4568.00
2022-10-20T08:06:17.547Z,4672.00
2022-10-20T08:07:17.571Z,4784.00
2022-10-20T08:08:16.811Z,4908.00
2022-10-20T08:09:17.549Z,5044.00
2022-10-20T08:10:16.633Z,5216.00
2022-10-20T08:11:16.630Z,5380.00
2022-10-20T08:12:16.639Z,5556.00
2022-10-20T08:13:16.612Z,5760.00
2022-10-20T08:14:16.612Z,6000.00
2022-10-20T08:15:20.562Z,6264.00
2022-10-20T08:16:17.608Z,6580.00
2022-10-20T08:17:16.564Z,6972.00
2022-10-20T08:18:17.547Z,7428.00
2022-10-20T08:19:16.586Z,7912.00
2022-10-20T08:20:17.557Z,8284.00
2022-10-20T08:21:16.562Z,8828.00
2022-10-20T08:22:16.513Z,10304.00
2022-10-20T08:23:16.494Z,12576.00
2022-10-20T08:24:16.478Z,14332.00
2022-10-20T08:25:16.484Z,15872.00
2022-10-20T08:26:16.473Z,14324.00
2022-10-20T08:27:16.471Z,14852.00
2022-10-20T08:28:16.701Z,16704.00
2022-10-20T08:29:16.430Z,30560.00
2022-10-20T08:30:23.816Z,31424.00
2022-10-20T08:31:17.428Z,35104.00
2022-10-20T08:32:16.410Z,34560.00
2022-10-20T08:33:16.415Z,32736.00
2022-10-20T08:34:16.388Z,30976.00
2022-10-20T08:35:16.415Z,31200.00
2022-10-20T08:36:16.351Z,34752.00
2022-10-20T08:37:16.394Z,32288.00
2022-10-20T08:38:16.343Z,17728.00
2022-10-20T08:39:17.056Z,16800.00
2022-10-20T08:40:16.368Z,22080.00
2022-10-20T08:41:16.537Z,15256.00
2022-10-20T08:42:18.064Z,14516.00
2022-10-20T08:43:16.277Z,19904.00
2022-10-20T08:44:16.286Z,23808.00
2022-10-20T08:45:16.413Z,20576.00
2022-10-20T08:46:16.271Z,22304.00
2022-10-20T08:47:16.284Z,27744.00
2022-10-20T08:48:17.160Z,32256.00
2022-10-20T08:49:16.213Z,30496.00
2022-10-20T08:50:16.226Z,30304.00
2022-10-20T08:51:16.193Z,31744.00
2022-10-20T08:52:16.168Z,29376.00
2022-10-20T08:53:16.185Z,26048.00
2022-10-20T08:54:16.162Z,24608.00
2022-10-20T08:55:16.189Z,22432.00
2022-10-20T08:56:16.368Z,21024.00
2022-10-20T08:57:16.122Z,18624.00
2022-10-20T08:58:16.131Z,21376.00
2022-10-20T08:59:16.684Z,23168.00
2022-10-20T09:00:16.242Z,22944.00
2022-10-20T09:01:16.370Z,21184.00
2022-10-20T09:02:16.169Z,19904.00
2022-10-20T09:03:16.248Z,19616.00
2022-10-20T09:04:16.234Z,18112.00
2022-10-20T09:05:18.397Z,18592.00
2022-10-20T09:06:16.069Z,19744.00
2022-10-20T09:07:16.788Z,21024.00
2022-10-20T09:08:23.960Z,21376.00
2022-10-20T09:09:15.982Z,21376.00
2022-10-20T09:10:16.142Z,23424.00
2022-10-20T09:11:17.047Z,24704.00
2022-10-20T09:12:15.988Z,24896.00
2022-10-20T09:13:15.972Z,27168.00
2022-10-20T09:14:15.936Z,32736.00
2022-10-20T09:15:15.936Z,36032.00
2022-10-20T09:16:27.164Z,32096.00
2022-10-20T09:17:16.962Z,35680.00
2022-10-20T09:18:15.898Z,43072.00
2022-10-20T09:19:15.925Z,56032.00
2022-10-20T09:20:19.613Z,63232.00
2022-10-20T09:21:15.901Z,65984.00
2022-10-20T09:22:15.837Z,67520.00
2022-10-20T09:23:39.472Z,69504.00
2022-10-20T09:24:16.870Z,66048.00
2022-10-20T09:25:15.853Z,55648.00
2022-10-20T09:26:30.437Z,71552.00
2022-10-20T09:27:16.833Z,64192.00
2022-10-20T09:28:15.788Z,41888.00
2022-10-20T09:29:15.755Z,40576.00
2022-10-20T09:30:15.743Z,31616.00
2022-10-20T09:31:15.794Z,30560.00
2022-10-20T09:32:41.128Z,30016.00
2022-10-20T09:33:16.792Z,35776.00
2022-10-20T09:34:15.741Z,27136.00
2022-10-20T09:35:15.710Z,25632.00
2022-10-20T09:36:15.698Z,27360.00
2022-10-20T09:37:15.666Z,27232.00
2022-10-20T09:38:15.671Z,31776.00
2022-10-20T09:39:15.662Z,44384.00
2022-10-20T09:40:15.667Z,48032.00
2022-10-20T09:41:15.622Z,44576.00
2022-10-20T09:42:15.645Z,46560.00
2022-10-20T09:43:15.624Z,54176.00
2022-10-20T09:44:15.595Z,55008.00
2022-10-20T09:45:16.130Z,50176.00
2022-10-20T09:46:15.590Z,54144.00
2022-10-20T09:47:15.586Z,51744.00
2022-10-20T09:48:15.566Z,56000.00
2022-10-20T09:49:15.551Z,56416.00
2022-10-20T09:50:15.523Z,54816.00
2022-10-20T09:51:15.581Z,54368.00
2022-10-20T09:52:15.503Z,51552.00
2022-10-20T09:53:15.512Z,49920.00
2022-10-20T09:54:15.525Z,46688.00
2022-10-20T09:55:15.503Z,43392.00
2022-10-20T09:56:15.499Z,32288.00
2022-10-20T09:57:15.448Z,41024.00
2022-10-20T09:58:17.176Z,34784.00
2022-10-20T09:59:15.708Z,41376.00
2022-10-20T10:00:35.849Z,49568.00
2022-10-20T10:01:16.464Z,56320.00
2022-10-20T10:02:15.408Z,49984.00
2022-10-20T10:03:15.369Z,44992.00
2022-10-20T10:04:15.375Z,61856.00
2022-10-20T10:05:15.360Z,66304.00
2022-10-20T10:06:15.344Z,60192.00
2022-10-20T10:07:15.331Z,67968.00
2022-10-20T10:08:15.340Z,69472.00
2022-10-20T10:09:15.388Z,57888.00
2022-10-20T10:10:15.312Z,58752.00
2022-10-20T10:11:15.282Z,58656.00
2022-10-20T10:12:15.299Z,69344.00
2022-10-20T10:13:15.295Z,75168.00
2022-10-20T10:14:15.337Z,80832.00
2022-10-20T10:15:15.282Z,70144.00
2022-10-20T10:16:15.246Z,25024.00
2022-10-20T10:17:15.234Z,24320.00
2022-10-20T10:18:15.235Z,67808.00
2022-10-20T10:20:15.358Z,77024.00
2022-10-20T10:21:16.097Z,74528.00
2022-10-20T10:22:16.374Z,50912.00
2022-10-20T10:23:15.163Z,34944.00
2022-10-20T10:24:15.160Z,42112.00
2022-10-20T10:25:15.174Z,33856.00
2022-10-20T10:26:15.203Z,32416.00
2022-10-20T10:27:15.243Z,25408.00
2022-10-20T10:28:15.251Z,30848.00
2022-10-20T10:29:15.786Z,18432.00
2022-10-20T10:30:15.191Z,12160.00
2022-10-20T10:31:15.802Z,10756.00
2022-10-20T10:32:15.071Z,10188.00
2022-10-20T10:33:15.040Z,9784.00
2022-10-20T10:34:15.056Z,9460.00
2022-10-20T10:35:15.016Z,9196.00
2022-10-20T10:36:15.018Z,8996.00
2022-10-20T10:37:15.096Z,8868.00
2022-10-20T10:38:15.005Z,8844.00
2022-10-20T10:39:14.987Z,8980.00
2022-10-20T10:40:15.094Z,9180.00
2022-10-20T10:41:14.960Z,9344.00
2022-10-20T10:42:14.970Z,9504.00
2022-10-20T10:43:14.924Z,9460.00
2022-10-20T10:44:14.944Z,9252.00
2022-10-20T10:45:14.936Z,8996.00
2022-10-20T10:46:14.897Z,9000.00
2022-10-20T10:47:14.894Z,9240.00
2022-10-20T10:48:14.885Z,9556.00
2022-10-20T10:49:14.883Z,10688.00
2022-10-20T10:50:14.960Z,13020.00
2022-10-20T10:51:14.840Z,14244.00
2022-10-20T10:52:14.858Z,20192.00
2022-10-20T10:53:14.836Z,19776.00
2022-10-20T10:54:14.833Z,13444.00
2022-10-20T10:55:30.499Z,10876.00
2022-10-20T10:56:15.800Z,10036.00
2022-10-20T10:57:21.961Z,9668.00
2022-10-20T10:59:14.843Z,9464.00
2022-10-20T11:00:14.768Z,9488.00
2022-10-20T11:01:14.849Z,9536.00
2022-10-20T11:02:14.741Z,9576.00
2022-10-20T11:03:14.763Z,9600.00
2022-10-20T11:04:14.699Z,9672.00
2022-10-20T11:06:14.705Z,9612.00
2022-10-20T11:07:14.662Z,9644.00
2022-10-20T11:08:14.727Z,9712.00
2022-10-20T11:09:23.218Z,9812.00
2022-10-20T11:10:14.899Z,10068.00
2022-10-20T11:11:14.616Z,10748.00
2022-10-20T11:12:14.613Z,12232.00
2022-10-20T11:13:14.611Z,12728.00
2022-10-20T11:14:14.866Z,13068.00
2022-10-20T11:15:14.605Z,15020.00
2022-10-20T11:16:14.605Z,16164.00
2022-10-20T11:17:14.574Z,16028.00
2022-10-20T11:18:14.562Z,15412.00
2022-10-20T11:19:14.803Z,15800.00
2022-10-20T11:20:14.557Z,15796.00
2022-10-20T11:21:14.505Z,16148.00
2022-10-20T11:22:15.250Z,17472.00
2022-10-20T11:23:14.499Z,19360.00
2022-10-20T11:24:14.498Z,32320.00
2022-10-20T11:25:14.470Z,57056.00
2022-10-20T11:26:14.457Z,46656.00
2022-10-20T11:27:14.439Z,41952.00
2022-10-20T11:28:14.430Z,41600.00
2022-10-20T11:29:14.421Z,17856.00
2022-10-20T11:30:14.422Z,25120.00
2022-10-20T11:31:14.412Z,38720.00
2022-10-20T11:32:14.406Z,34624.00
2022-10-20T11:33:14.382Z,29952.00
2022-10-20T11:34:14.380Z,17312.00
2022-10-20T11:35:14.350Z,12868.00
2022-10-20T11:36:14.345Z,11848.00
2022-10-20T11:37:15.165Z,10536.00
2022-10-20T11:38:14.335Z,9084.00
2022-10-20T11:39:14.313Z,8200.00
2022-10-20T11:40:14.343Z,7516.00
2022-10-20T11:41:14.297Z,7152.00
2022-10-20T11:42:14.283Z,6936.00
2022-10-20T11:43:14.265Z,6612.00
2022-10-20T11:44:14.262Z,6256.00
2022-10-20T11:45:14.254Z,5940.00
2022-10-20T11:46:14.245Z,5740.00
2022-10-20T11:47:14.234Z,5604.00
2022-10-20T11:48:14.241Z,5564.00
2022-10-20T11:49:14.957Z,5592.00
2022-10-20T11:50:14.188Z,5616.00
2022-10-20T11:51:14.187Z,5620.00
2022-10-20T11:52:14.167Z,5620.00
2022-10-20T11:53:14.149Z,5664.00
2022-10-20T11:54:14.154Z,5808.00
2022-10-20T11:55:14.166Z,6140.00
2022-10-20T11:56:14.124Z,6672.00
2022-10-20T11:57:14.129Z,7780.00
2022-10-20T11:58:14.139Z,8180.00
2022-10-20T11:59:14.101Z,8664.00
2022-10-20T12:00:14.115Z,8800.00
2022-10-20T12:01:14.065Z,8652.00
2022-10-20T12:02:14.187Z,8516.00
2022-10-20T12:03:14.062Z,8380.00
2022-10-20T12:04:14.052Z,8224.00
2022-10-20T12:05:14.021Z,7924.00
2022-10-20T12:06:14.014Z,7468.00
2022-10-20T12:07:14.036Z,6916.00
2022-10-20T12:08:30.484Z,6372.00
2022-10-20T12:09:15.138Z,5864.00
2022-10-20T12:10:14.029Z,5464.00
2022-10-20T12:11:13.982Z,5128.00
2022-10-20T12:12:14.103Z,4804.00
2022-10-20T12:13:13.938Z,4484.00
2022-10-20T12:14:13.923Z,4212.00
2022-10-20T12:15:17.473Z,3960.00
2022-10-20T12:16:14.905Z,3720.00
2022-10-20T12:17:13.888Z,3504.00
2022-10-20T12:18:13.909Z,3300.00
2022-10-20T12:19:13.894Z,3120.00
2022-10-20T12:20:13.881Z,2956.00
2022-10-20T12:21:13.840Z,2808.00
2022-10-20T12:22:13.837Z,2668.00
2022-10-20T12:23:13.866Z,2556.00
2022-10-20T12:24:13.832Z,2468.00
2022-10-20T12:25:13.799Z,2400.00
2022-10-20T12:26:13.796Z,2372.00
2022-10-20T12:27:13.773Z,2364.00
2022-10-20T12:28:13.768Z,2380.00
2022-10-20T12:29:13.768Z,2360.00
2022-10-20T12:30:13.744Z,2316.00
2022-10-20T12:31:13.732Z,2288.00
2022-10-20T12:32:13.723Z,2260.00
2022-10-20T12:33:13.705Z,2220.00
2022-10-20T12:34:13.702Z,2168.00
2022-10-20T12:35:13.698Z,2112.00
2022-10-20T12:36:13.722Z,2040.00